MMZO

Playa De Oro International Airport

Manzanillo, Mexico
TAF MMZO 251649Z 2518/2618 20012KT P6SM SCT020 FM260300 04010KT P6SM SCT250
Issued Valid From Valid To
Apr-25 @ 16:49 UTC
(11 hours ago)
Apr-25 @ 18:00 UTC
(10 hours ago)
Apr-26 @ 18:00 UTC
(in 14 hours)
Expired Click to View Apr-25 @ 18:00 to Apr-26 @ 03:00
TAF MMZO 251649Z 2518/2618 20012KT P6SM SCT020
Wind Visibility Clouds
200° at 12 knots Greater than 6 miles
  • Scattered at 2,000' AGL
From Apr-26 @ 03:00 to Apr-26 @ 18:00
FM260300 04010KT P6SM SCT250
Wind Visibility Clouds
40° at 10 knots Greater than 6 miles
  • Scattered at 25,000' AGL
TAF MMZO 251649Z 2518/2618 20012KT P6SM SCT020 FM260300 04010KT P6SM SCT250
Issued Apr-25 @ 16:49 UTC
(11 hours ago)
Valid From Apr-25 @ 18:00 UTC
(10 hours ago)
Valid To Apr-26 @ 18:00 UTC
(in 14 hours)
Apr-25 @ 18:00 - Apr-26 @ 03:00
Wind Visibility
200° at 12 knots Greater than 6 miles
Clouds
  • Scattered at 2,000' AGL
From Apr-26 @ 03:00 - Apr-26 @ 18:00
Wind Visibility
40° at 10 knots Greater than 6 miles
Clouds
  • Scattered at 25,000' AGL